sensor_id;sensor_type;location;lat;lon;timestamp;P1;durP1;ratioP1;P2;durP2;ratioP2
50205;SDS011;36098;48.390;10.856;2023-09-07T00:00:18;3.50;;;2.03;;
50205;SDS011;36098;48.390;10.856;2023-09-07T00:02:43;3.05;;;2.00;;
50205;SDS011;36098;48.390;10.856;2023-09-07T00:05:08;2.75;;;1.80;;
50205;SDS011;36098;48.390;10.856;2023-09-07T00:07:34;2.15;;;1.85;;
50205;SDS011;36098;48.390;10.856;2023-09-07T00:10:00;2.72;;;1.85;;
50205;SDS011;36098;48.390;10.856;2023-09-07T00:12:26;3.40;;;1.90;;
50205;SDS011;36098;48.390;10.856;2023-09-07T00:14:52;3.42;;;1.63;;
50205;SDS011;36098;48.390;10.856;2023-09-07T00:17:22;3.22;;;2.05;;
50205;SDS011;36098;48.390;10.856;2023-09-07T00:19:47;2.55;;;2.00;;
50205;SDS011;36098;48.390;10.856;2023-09-07T00:22:16;2.47;;;1.73;;
50205;SDS011;36098;48.390;10.856;2023-09-07T00:24:42;2.72;;;1.83;;
50205;SDS011;36098;48.390;10.856;2023-09-07T00:27:07;2.45;;;1.63;;
50205;SDS011;36098;48.390;10.856;2023-09-07T00:29:34;2.65;;;2.00;;
50205;SDS011;36098;48.390;10.856;2023-09-07T00:32:00;3.10;;;1.75;;
50205;SDS011;36098;48.390;10.856;2023-09-07T00:34:25;2.63;;;1.90;;
50205;SDS011;36098;48.390;10.856;2023-09-07T00:36:51;3.40;;;1.88;;
50205;SDS011;36098;48.390;10.856;2023-09-07T00:39:16;2.55;;;1.88;;
50205;SDS011;36098;48.390;10.856;2023-09-07T00:41:41;1.90;;;1.55;;
50205;SDS011;36098;48.390;10.856;2023-09-07T00:44:06;2.60;;;1.90;;
50205;SDS011;36098;48.390;10.856;2023-09-07T00:46:32;2.25;;;1.90;;
50205;SDS011;36098;48.390;10.856;2023-09-07T00:48:57;3.35;;;2.13;;
50205;SDS011;36098;48.390;10.856;2023-09-07T00:51:22;2.53;;;1.90;;
50205;SDS011;36098;48.390;10.856;2023-09-07T00:53:49;2.70;;;1.67;;
50205;SDS011;36098;48.390;10.856;2023-09-07T00:56:15;3.75;;;1.80;;
50205;SDS011;36098;48.390;10.856;2023-09-07T00:58:41;2.00;;;1.60;;
50205;SDS011;36098;48.390;10.856;2023-09-07T01:01:08;2.60;;;1.90;;
50205;SDS011;36098;48.390;10.856;2023-09-07T01:03:33;5.18;;;1.88;;
50205;SDS011;36098;48.390;10.856;2023-09-07T01:06:01;2.78;;;1.70;;
50205;SDS011;36098;48.390;10.856;2023-09-07T01:11:00;2.63;;;1.95;;
50205;SDS011;36098;48.390;10.856;2023-09-07T01:13:25;2.38;;;1.95;;
50205;SDS011;36098;48.390;10.856;2023-09-07T01:15:51;2.85;;;1.70;;
50205;SDS011;36098;48.390;10.856;2023-09-07T01:18:17;2.55;;;1.70;;
50205;SDS011;36098;48.390;10.856;2023-09-07T01:20:43;2.20;;;1.73;;
50205;SDS011;36098;48.390;10.856;2023-09-07T01:23:10;2.42;;;1.90;;
50205;SDS011;36098;48.390;10.856;2023-09-07T01:25:36;1.80;;;1.60;;
50205;SDS011;36098;48.390;10.856;2023-09-07T01:28:02;2.60;;;1.90;;
50205;SDS011;36098;48.390;10.856;2023-09-07T01:30:28;2.15;;;1.80;;
50205;SDS011;36098;48.390;10.856;2023-09-07T01:32:53;2.55;;;1.67;;
50205;SDS011;36098;48.390;10.856;2023-09-07T01:35:19;1.98;;;1.55;;
50205;SDS011;36098;48.390;10.856;2023-09-07T01:37:46;2.67;;;1.80;;
50205;SDS011;36098;48.390;10.856;2023-09-07T01:40:12;2.83;;;1.98;;
50205;SDS011;36098;48.390;10.856;2023-09-07T01:42:37;2.42;;;1.73;;
50205;SDS011;36098;48.390;10.856;2023-09-07T01:45:03;2.40;;;1.63;;
50205;SDS011;36098;48.390;10.856;2023-09-07T01:47:29;2.70;;;1.77;;
50205;SDS011;36098;48.390;10.856;2023-09-07T01:49:54;2.58;;;1.40;;
50205;SDS011;36098;48.390;10.856;2023-09-07T01:52:19;2.67;;;1.77;;
50205;SDS011;36098;48.390;10.856;2023-09-07T01:54:44;3.22;;;1.90;;
50205;SDS011;36098;48.390;10.856;2023-09-07T01:57:10;2.17;;;1.60;;
50205;SDS011;36098;48.390;10.856;2023-09-07T01:59:35;2.50;;;1.60;;
50205;SDS011;36098;48.390;10.856;2023-09-07T02:02:00;1.90;;;1.45;;
50205;SDS011;36098;48.390;10.856;2023-09-07T02:04:26;2.45;;;1.77;;
50205;SDS011;36098;48.390;10.856;2023-09-07T02:06:51;2.13;;;1.52;;
50205;SDS011;36098;48.390;10.856;2023-09-07T02:09:16;2.38;;;1.80;;
50205;SDS011;36098;48.390;10.856;2023-09-07T02:11:41;2.42;;;1.80;;
50205;SDS011;36098;48.390;10.856;2023-09-07T02:14:06;2.60;;;1.90;;
50205;SDS011;36098;48.390;10.856;2023-09-07T02:16:32;2.30;;;1.58;;
50205;SDS011;36098;48.390;10.856;2023-09-07T02:19:04;1.80;;;1.60;;
50205;SDS011;36098;48.390;10.856;2023-09-07T02:21:29;1.73;;;1.60;;
50205;SDS011;36098;48.390;10.856;2023-09-07T02:23:55;2.55;;;1.58;;
50205;SDS011;36098;48.390;10.856;2023-09-07T02:26:20;2.30;;;1.45;;
50205;SDS011;36098;48.390;10.856;2023-09-07T02:28:45;2.30;;;1.70;;
50205;SDS011;36098;48.390;10.856;2023-09-07T02:31:10;2.25;;;1.67;;
50205;SDS011;36098;48.390;10.856;2023-09-07T02:33:36;1.88;;;1.42;;
50205;SDS011;36098;48.390;10.856;2023-09-07T02:36:01;2.92;;;1.70;;
50205;SDS011;36098;48.390;10.856;2023-09-07T02:38:27;2.85;;;1.90;;
50205;SDS011;36098;48.390;10.856;2023-09-07T02:40:52;2.35;;;1.70;;
50205;SDS011;36098;48.390;10.856;2023-09-07T02:43:18;2.50;;;1.60;;
50205;SDS011;36098;48.390;10.856;2023-09-07T02:45:43;2.95;;;1.40;;
50205;SDS011;36098;48.390;10.856;2023-09-07T02:48:08;2.75;;;1.90;;
50205;SDS011;36098;48.390;10.856;2023-09-07T02:50:34;2.40;;;1.50;;
50205;SDS011;36098;48.390;10.856;2023-09-07T02:53:00;2.60;;;2.08;;
50205;SDS011;36098;48.390;10.856;2023-09-07T02:55:26;2.08;;;1.67;;
50205;SDS011;36098;48.390;10.856;2023-09-07T02:57:52;2.00;;;1.63;;
50205;SDS011;36098;48.390;10.856;2023-09-07T03:00:17;2.08;;;1.60;;
50205;SDS011;36098;48.390;10.856;2023-09-07T03:02:43;1.92;;;1.60;;
50205;SDS011;36098;48.390;10.856;2023-09-07T03:05:09;2.20;;;1.70;;
50205;SDS011;36098;48.390;10.856;2023-09-07T03:07:34;2.50;;;1.67;;
50205;SDS011;36098;48.390;10.856;2023-09-07T03:09:59;2.53;;;1.60;;
50205;SDS011;36098;48.390;10.856;2023-09-07T03:12:25;2.22;;;1.60;;
50205;SDS011;36098;48.390;10.856;2023-09-07T03:14:51;2.05;;;1.52;;
50205;SDS011;36098;48.390;10.856;2023-09-07T03:17:17;2.00;;;1.40;;
50205;SDS011;36098;48.390;10.856;2023-09-07T03:19:42;2.00;;;1.73;;
50205;SDS011;36098;48.390;10.856;2023-09-07T03:22:08;2.78;;;1.83;;
50205;SDS011;36098;48.390;10.856;2023-09-07T03:24:33;2.42;;;1.70;;
50205;SDS011;36098;48.390;10.856;2023-09-07T03:26:59;2.25;;;1.70;;
50205;SDS011;36098;48.390;10.856;2023-09-07T03:29:24;2.70;;;1.80;;
50205;SDS011;36098;48.390;10.856;2023-09-07T03:31:50;1.70;;;1.40;;
50205;SDS011;36098;48.390;10.856;2023-09-07T03:34:15;2.35;;;1.75;;
50205;SDS011;36098;48.390;10.856;2023-09-07T03:36:40;1.83;;;1.50;;
50205;SDS011;36098;48.390;10.856;2023-09-07T03:39:05;3.03;;;1.90;;
50205;SDS011;36098;48.390;10.856;2023-09-07T03:41:32;1.90;;;1.60;;
50205;SDS011;36098;48.390;10.856;2023-09-07T03:43:59;2.28;;;1.60;;
50205;SDS011;36098;48.390;10.856;2023-09-07T03:46:24;2.13;;;1.63;;
50205;SDS011;36098;48.390;10.856;2023-09-07T03:48:49;2.05;;;1.60;;
50205;SDS011;36098;48.390;10.856;2023-09-07T03:51:15;2.28;;;1.73;;
50205;SDS011;36098;48.390;10.856;2023-09-07T03:53:40;2.10;;;1.70;;
50205;SDS011;36098;48.390;10.856;2023-09-07T03:56:05;1.63;;;1.50;;
50205;SDS011;36098;48.390;10.856;2023-09-07T03:58:30;1.85;;;1.50;;
50205;SDS011;36098;48.390;10.856;2023-09-07T04:00:58;1.92;;;1.58;;
50205;SDS011;36098;48.390;10.856;2023-09-07T04:03:24;1.83;;;1.52;;
50205;SDS011;36098;48.390;10.856;2023-09-07T04:05:50;2.00;;;1.60;;
50205;SDS011;36098;48.390;10.856;2023-09-07T04:08:15;2.03;;;1.60;;
50205;SDS011;36098;48.390;10.856;2023-09-07T04:10:41;2.83;;;1.80;;
50205;SDS011;36098;48.390;10.856;2023-09-07T04:13:06;2.60;;;1.77;;
50205;SDS011;36098;48.390;10.856;2023-09-07T04:15:33;2.08;;;1.70;;
50205;SDS011;36098;48.390;10.856;2023-09-07T04:17:58;2.10;;;1.60;;
50205;SDS011;36098;48.390;10.856;2023-09-07T04:20:24;2.55;;;1.80;;
50205;SDS011;36098;48.390;10.856;2023-09-07T04:22:51;1.98;;;1.52;;
50205;SDS011;36098;48.390;10.856;2023-09-07T04:25:16;3.33;;;1.70;;
50205;SDS011;36098;48.390;10.856;2023-09-07T04:27:41;1.75;;;1.55;;
50205;SDS011;36098;48.390;10.856;2023-09-07T04:30:07;2.10;;;1.70;;
50205;SDS011;36098;48.390;10.856;2023-09-07T04:32:32;2.00;;;1.60;;
50205;SDS011;36098;48.390;10.856;2023-09-07T04:34:58;2.25;;;1.63;;
50205;SDS011;36098;48.390;10.856;2023-09-07T04:37:24;1.65;;;1.50;;
50205;SDS011;36098;48.390;10.856;2023-09-07T04:39:50;1.95;;;1.63;;
50205;SDS011;36098;48.390;10.856;2023-09-07T04:42:17;2.33;;;1.95;;
50205;SDS011;36098;48.390;10.856;2023-09-07T04:44:43;2.00;;;1.75;;
50205;SDS011;36098;48.390;10.856;2023-09-07T04:47:08;2.03;;;1.67;;
50205;SDS011;36098;48.390;10.856;2023-09-07T04:49:33;2.13;;;1.42;;
50205;SDS011;36098;48.390;10.856;2023-09-07T04:51:58;2.45;;;1.70;;
50205;SDS011;36098;48.390;10.856;2023-09-07T04:54:24;2.67;;;1.63;;
50205;SDS011;36098;48.390;10.856;2023-09-07T04:56:49;2.97;;;1.85;;
50205;SDS011;36098;48.390;10.856;2023-09-07T04:59:15;2.35;;;1.95;;
50205;SDS011;36098;48.390;10.856;2023-09-07T05:01:40;2.45;;;1.70;;
50205;SDS011;36098;48.390;10.856;2023-09-07T05:04:05;2.53;;;1.73;;
50205;SDS011;36098;48.390;10.856;2023-09-07T05:06:31;2.05;;;1.63;;
50205;SDS011;36098;48.390;10.856;2023-09-07T05:08:59;2.00;;;1.48;;
50205;SDS011;36098;48.390;10.856;2023-09-07T05:11:31;1.98;;;1.65;;
50205;SDS011;36098;48.390;10.856;2023-09-07T05:13:59;2.45;;;1.67;;
50205;SDS011;36098;48.390;10.856;2023-09-07T05:16:24;2.08;;;1.60;;
50205;SDS011;36098;48.390;10.856;2023-09-07T05:18:50;2.00;;;1.50;;
50205;SDS011;36098;48.390;10.856;2023-09-07T05:21:15;1.92;;;1.50;;
50205;SDS011;36098;48.390;10.856;2023-09-07T05:23:41;1.98;;;1.65;;
50205;SDS011;36098;48.390;10.856;2023-09-07T05:26:07;2.30;;;1.60;;
50205;SDS011;36098;48.390;10.856;2023-09-07T05:28:32;1.80;;;1.58;;
50205;SDS011;36098;48.390;10.856;2023-09-07T05:30:57;2.17;;;1.85;;
50205;SDS011;36098;48.390;10.856;2023-09-07T05:33:22;2.40;;;1.70;;
50205;SDS011;36098;48.390;10.856;2023-09-07T05:35:48;2.08;;;1.77;;
50205;SDS011;36098;48.390;10.856;2023-09-07T05:38:13;2.05;;;1.67;;
50205;SDS011;36098;48.390;10.856;2023-09-07T05:40:40;1.92;;;1.58;;
50205;SDS011;36098;48.390;10.856;2023-09-07T05:43:07;2.00;;;1.55;;
50205;SDS011;36098;48.390;10.856;2023-09-07T05:45:34;2.17;;;1.80;;
50205;SDS011;36098;48.390;10.856;2023-09-07T05:48:03;2.13;;;1.60;;
50205;SDS011;36098;48.390;10.856;2023-09-07T05:50:29;2.92;;;1.48;;
50205;SDS011;36098;48.390;10.856;2023-09-07T05:52:54;2.47;;;1.75;;
50205;SDS011;36098;48.390;10.856;2023-09-07T05:55:20;2.08;;;1.75;;
50205;SDS011;36098;48.390;10.856;2023-09-07T05:57:45;3.47;;;1.67;;
50205;SDS011;36098;48.390;10.856;2023-09-07T06:00:11;2.67;;;1.70;;
50205;SDS011;36098;48.390;10.856;2023-09-07T06:02:38;2.97;;;1.77;;
50205;SDS011;36098;48.390;10.856;2023-09-07T06:05:04;2.05;;;1.70;;
50205;SDS011;36098;48.390;10.856;2023-09-07T06:07:29;2.13;;;1.77;;
50205;SDS011;36098;48.390;10.856;2023-09-07T06:09:55;2.42;;;1.90;;
50205;SDS011;36098;48.390;10.856;2023-09-07T06:12:20;1.98;;;1.77;;
50205;SDS011;36098;48.390;10.856;2023-09-07T06:14:45;2.63;;;1.45;;
50205;SDS011;36098;48.390;10.856;2023-09-07T06:17:11;1.95;;;1.60;;
50205;SDS011;36098;48.390;10.856;2023-09-07T06:19:37;2.13;;;1.58;;
50205;SDS011;36098;48.390;10.856;2023-09-07T06:22:02;2.33;;;1.80;;
50205;SDS011;36098;48.390;10.856;2023-09-07T06:24:27;1.77;;;1.48;;
50205;SDS011;36098;48.390;10.856;2023-09-07T06:26:52;2.20;;;1.58;;
50205;SDS011;36098;48.390;10.856;2023-09-07T06:29:18;1.90;;;1.60;;
50205;SDS011;36098;48.390;10.856;2023-09-07T06:31:43;2.00;;;1.67;;
50205;SDS011;36098;48.390;10.856;2023-09-07T06:34:08;1.95;;;1.70;;
50205;SDS011;36098;48.390;10.856;2023-09-07T06:36:34;2.38;;;1.65;;
50205;SDS011;36098;48.390;10.856;2023-09-07T06:39:00;2.30;;;1.77;;
50205;SDS011;36098;48.390;10.856;2023-09-07T06:41:25;2.10;;;1.90;;
50205;SDS011;36098;48.390;10.856;2023-09-07T06:43:51;2.22;;;1.90;;
50205;SDS011;36098;48.390;10.856;2023-09-07T06:46:16;4.25;;;1.70;;
50205;SDS011;36098;48.390;10.856;2023-09-07T06:48:41;2.10;;;1.75;;
50205;SDS011;36098;48.390;10.856;2023-09-07T06:51:07;3.47;;;1.70;;
50205;SDS011;36098;48.390;10.856;2023-09-07T06:53:34;2.80;;;1.90;;
50205;SDS011;36098;48.390;10.856;2023-09-07T06:55:59;2.78;;;1.60;;
50205;SDS011;36098;48.390;10.856;2023-09-07T06:58:26;2.90;;;1.83;;
50205;SDS011;36098;48.390;10.856;2023-09-07T07:00:51;3.20;;;2.25;;
50205;SDS011;36098;48.390;10.856;2023-09-07T07:03:17;4.20;;;1.90;;
50205;SDS011;36098;48.390;10.856;2023-09-07T07:05:42;2.63;;;1.90;;
50205;SDS011;36098;48.390;10.856;2023-09-07T07:08:07;3.30;;;2.03;;
50205;SDS011;36098;48.390;10.856;2023-09-07T07:10:34;1.92;;;1.40;;
50205;SDS011;36098;48.390;10.856;2023-09-07T07:12:59;5.43;;;1.98;;
50205;SDS011;36098;48.390;10.856;2023-09-07T07:15:25;2.30;;;1.90;;
50205;SDS011;36098;48.390;10.856;2023-09-07T07:17:50;3.30;;;2.28;;
50205;SDS011;36098;48.390;10.856;2023-09-07T07:20:15;5.55;;;2.70;;
50205;SDS011;36098;48.390;10.856;2023-09-07T07:22:40;9.60;;;2.63;;
50205;SDS011;36098;48.390;10.856;2023-09-07T07:25:06;6.47;;;3.00;;
50205;SDS011;36098;48.390;10.856;2023-09-07T07:27:31;5.70;;;3.20;;
50205;SDS011;36098;48.390;10.856;2023-09-07T07:29:57;8.52;;;3.08;;
50205;SDS011;36098;48.390;10.856;2023-09-07T07:32:22;9.35;;;3.75;;
50205;SDS011;36098;48.390;10.856;2023-09-07T07:34:47;11.32;;;3.67;;
50205;SDS011;36098;48.390;10.856;2023-09-07T07:37:13;7.55;;;3.65;;
50205;SDS011;36098;48.390;10.856;2023-09-07T07:39:38;9.15;;;3.30;;
50205;SDS011;36098;48.390;10.856;2023-09-07T07:42:03;9.55;;;3.30;;
50205;SDS011;36098;48.390;10.856;2023-09-07T07:44:31;8.88;;;4.15;;
50205;SDS011;36098;48.390;10.856;2023-09-07T07:46:56;7.55;;;3.72;;
50205;SDS011;36098;48.390;10.856;2023-09-07T07:49:21;5.30;;;3.53;;
50205;SDS011;36098;48.390;10.856;2023-09-07T07:51:46;6.13;;;4.03;;
50205;SDS011;36098;48.390;10.856;2023-09-07T07:54:12;6.03;;;3.80;;
50205;SDS011;36098;48.390;10.856;2023-09-07T07:56:38;8.43;;;4.07;;
50205;SDS011;36098;48.390;10.856;2023-09-07T07:59:04;14.52;;;4.00;;
50205;SDS011;36098;48.390;10.856;2023-09-07T08:01:29;8.93;;;4.22;;
50205;SDS011;36098;48.390;10.856;2023-09-07T08:03:54;8.25;;;3.83;;
50205;SDS011;36098;48.390;10.856;2023-09-07T08:06:19;5.50;;;3.95;;
50205;SDS011;36098;48.390;10.856;2023-09-07T08:08:45;8.80;;;4.50;;
50205;SDS011;36098;48.390;10.856;2023-09-07T08:11:10;10.43;;;4.20;;
50205;SDS011;36098;48.390;10.856;2023-09-07T08:13:36;9.75;;;4.43;;
50205;SDS011;36098;48.390;10.856;2023-09-07T08:16:02;5.65;;;4.13;;
50205;SDS011;36098;48.390;10.856;2023-09-07T08:18:28;9.30;;;4.03;;
50205;SDS011;36098;48.390;10.856;2023-09-07T08:20:53;6.75;;;3.97;;
50205;SDS011;36098;48.390;10.856;2023-09-07T08:23:20;6.80;;;3.75;;
50205;SDS011;36098;48.390;10.856;2023-09-07T08:25:46;7.30;;;3.78;;
50205;SDS011;36098;48.390;10.856;2023-09-07T08:28:11;7.30;;;4.40;;
50205;SDS011;36098;48.390;10.856;2023-09-07T08:30:37;7.95;;;4.60;;
50205;SDS011;36098;48.390;10.856;2023-09-07T08:33:03;6.63;;;3.60;;
50205;SDS011;36098;48.390;10.856;2023-09-07T08:35:30;8.80;;;4.55;;
50205;SDS011;36098;48.390;10.856;2023-09-07T08:37:59;6.47;;;3.90;;
50205;SDS011;36098;48.390;10.856;2023-09-07T08:40:26;7.60;;;4.18;;
50205;SDS011;36098;48.390;10.856;2023-09-07T08:42:52;6.45;;;3.85;;
50205;SDS011;36098;48.390;10.856;2023-09-07T08:45:18;5.57;;;3.70;;
50205;SDS011;36098;48.390;10.856;2023-09-07T08:47:46;8.07;;;4.13;;
50205;SDS011;36098;48.390;10.856;2023-09-07T08:50:13;6.22;;;4.32;;
50205;SDS011;36098;48.390;10.856;2023-09-07T08:52:41;9.40;;;4.35;;
50205;SDS011;36098;48.390;10.856;2023-09-07T08:55:07;5.45;;;3.83;;
50205;SDS011;36098;48.390;10.856;2023-09-07T08:57:33;7.40;;;4.22;;
50205;SDS011;36098;48.390;10.856;2023-09-07T08:59:59;10.13;;;4.20;;
50205;SDS011;36098;48.390;10.856;2023-09-07T09:02:24;7.70;;;4.47;;
50205;SDS011;36098;48.390;10.856;2023-09-07T09:04:50;8.75;;;4.20;;
50205;SDS011;36098;48.390;10.856;2023-09-07T09:07:15;14.52;;;4.70;;
50205;SDS011;36098;48.390;10.856;2023-09-07T09:09:41;21.25;;;4.68;;
50205;SDS011;36098;48.390;10.856;2023-09-07T09:12:09;8.45;;;4.70;;
50205;SDS011;36098;48.390;10.856;2023-09-07T09:14:39;10.80;;;4.32;;
50205;SDS011;36098;48.390;10.856;2023-09-07T09:17:10;12.68;;;6.70;;
50205;SDS011;36098;48.390;10.856;2023-09-07T09:19:37;13.00;;;6.75;;
50205;SDS011;36098;48.390;10.856;2023-09-07T09:22:02;11.73;;;6.13;;
50205;SDS011;36098;48.390;10.856;2023-09-07T09:24:31;29.08;;;16.73;;
50205;SDS011;36098;48.390;10.856;2023-09-07T09:26:57;37.78;;;19.95;;
50205;SDS011;36098;48.390;10.856;2023-09-07T09:29:22;51.13;;;28.38;;
50205;SDS011;36098;48.390;10.856;2023-09-07T09:31:48;55.30;;;29.20;;
50205;SDS011;36098;48.390;10.856;2023-09-07T09:34:14;25.63;;;16.00;;
50205;SDS011;36098;48.390;10.856;2023-09-07T09:36:42;19.80;;;11.77;;
50205;SDS011;36098;48.390;10.856;2023-09-07T09:39:08;16.27;;;9.07;;
50205;SDS011;36098;48.390;10.856;2023-09-07T09:41:34;15.77;;;8.40;;
50205;SDS011;36098;48.390;10.856;2023-09-07T09:44:00;14.27;;;7.43;;
50205;SDS011;36098;48.390;10.856;2023-09-07T09:46:28;26.05;;;8.40;;
50205;SDS011;36098;48.390;10.856;2023-09-07T09:48:56;23.45;;;8.05;;
50205;SDS011;36098;48.390;10.856;2023-09-07T09:51:22;13.90;;;6.95;;
50205;SDS011;36098;48.390;10.856;2023-09-07T09:53:49;13.43;;;6.70;;
50205;SDS011;36098;48.390;10.856;2023-09-07T09:56:15;10.30;;;6.43;;
50205;SDS011;36098;48.390;10.856;2023-09-07T09:58:42;13.40;;;6.20;;
50205;SDS011;36098;48.390;10.856;2023-09-07T10:01:07;15.32;;;6.00;;
50205;SDS011;36098;48.390;10.856;2023-09-07T10:03:36;12.25;;;6.07;;
50205;SDS011;36098;48.390;10.856;2023-09-07T10:06:18;25.88;;;5.93;;
50205;SDS011;36098;48.390;10.856;2023-09-07T10:09:05;13.80;;;5.50;;
50205;SDS011;36098;48.390;10.856;2023-09-07T10:11:38;10.07;;;5.35;;
50205;SDS011;36098;48.390;10.856;2023-09-07T10:14:04;9.68;;;5.65;;
50205;SDS011;36098;48.390;10.856;2023-09-07T10:16:51;7.93;;;4.97;;
50205;SDS011;36098;48.390;10.856;2023-09-07T10:19:22;11.30;;;4.90;;
50205;SDS011;36098;48.390;10.856;2023-09-07T10:21:48;10.55;;;4.90;;
50205;SDS011;36098;48.390;10.856;2023-09-07T10:27:00;5.68;;;4.40;;
50205;SDS011;36098;48.390;10.856;2023-09-07T10:29:27;10.55;;;4.53;;
50205;SDS011;36098;48.390;10.856;2023-09-07T10:31:53;12.45;;;4.53;;
50205;SDS011;36098;48.390;10.856;2023-09-07T10:34:18;10.10;;;4.60;;
50205;SDS011;36098;48.390;10.856;2023-09-07T10:36:44;8.30;;;4.72;;
50205;SDS011;36098;48.390;10.856;2023-09-07T10:39:11;8.00;;;4.28;;
50205;SDS011;36098;48.390;10.856;2023-09-07T10:41:42;9.05;;;4.30;;
50205;SDS011;36098;48.390;10.856;2023-09-07T10:44:08;10.38;;;4.40;;
50205;SDS011;36098;48.390;10.856;2023-09-07T10:46:35;8.73;;;4.68;;
50205;SDS011;36098;48.390;10.856;2023-09-07T10:49:02;8.93;;;4.85;;
50205;SDS011;36098;48.390;10.856;2023-09-07T10:51:28;8.20;;;4.53;;
50205;SDS011;36098;48.390;10.856;2023-09-07T10:53:54;7.47;;;4.50;;
50205;SDS011;36098;48.390;10.856;2023-09-07T10:56:20;5.65;;;4.03;;
50205;SDS011;36098;48.390;10.856;2023-09-07T10:58:53;8.77;;;4.13;;
50205;SDS011;36098;48.390;10.856;2023-09-07T11:01:19;6.32;;;3.90;;
50205;SDS011;36098;48.390;10.856;2023-09-07T11:03:45;8.27;;;4.30;;
50205;SDS011;36098;48.390;10.856;2023-09-07T11:06:12;7.65;;;4.03;;
50205;SDS011;36098;48.390;10.856;2023-09-07T11:08:44;7.00;;;4.15;;
50205;SDS011;36098;48.390;10.856;2023-09-07T11:11:10;7.63;;;4.45;;
50205;SDS011;36098;48.390;10.856;2023-09-07T11:13:36;6.65;;;4.00;;
50205;SDS011;36098;48.390;10.856;2023-09-07T11:16:01;8.45;;;4.20;;
50205;SDS011;36098;48.390;10.856;2023-09-07T11:18:27;9.65;;;4.30;;
50205;SDS011;36098;48.390;10.856;2023-09-07T11:20:52;6.80;;;3.92;;
50205;SDS011;36098;48.390;10.856;2023-09-07T11:23:19;6.70;;;4.53;;
50205;SDS011;36098;48.390;10.856;2023-09-07T11:25:46;7.72;;;4.30;;
50205;SDS011;36098;48.390;10.856;2023-09-07T11:28:14;7.00;;;4.28;;
50205;SDS011;36098;48.390;10.856;2023-09-07T11:30:50;11.93;;;4.32;;
50205;SDS011;36098;48.390;10.856;2023-09-07T11:33:17;6.15;;;4.00;;
50205;SDS011;36098;48.390;10.856;2023-09-07T11:35:42;11.77;;;4.35;;
50205;SDS011;36098;48.390;10.856;2023-09-07T11:38:08;4.68;;;3.53;;
50205;SDS011;36098;48.390;10.856;2023-09-07T11:40:36;6.82;;;4.07;;
50205;SDS011;36098;48.390;10.856;2023-09-07T11:43:01;6.60;;;3.90;;
50205;SDS011;36098;48.390;10.856;2023-09-07T11:45:26;6.10;;;3.75;;
50205;SDS011;36098;48.390;10.856;2023-09-07T11:47:52;8.65;;;4.07;;
50205;SDS011;36098;48.390;10.856;2023-09-07T11:50:18;8.15;;;4.20;;
50205;SDS011;36098;48.390;10.856;2023-09-07T11:52:44;7.30;;;4.25;;
50205;SDS011;36098;48.390;10.856;2023-09-07T11:55:10;4.45;;;3.63;;
50205;SDS011;36098;48.390;10.856;2023-09-07T11:57:36;7.10;;;3.90;;
50205;SDS011;36098;48.390;10.856;2023-09-07T12:00:04;8.05;;;3.58;;
50205;SDS011;36098;48.390;10.856;2023-09-07T12:02:31;11.35;;;3.53;;
50205;SDS011;36098;48.390;10.856;2023-09-07T12:04:56;9.95;;;4.00;;
50205;SDS011;36098;48.390;10.856;2023-09-07T12:07:21;8.88;;;3.78;;
50205;SDS011;36098;48.390;10.856;2023-09-07T12:09:47;7.40;;;3.60;;
50205;SDS011;36098;48.390;10.856;2023-09-07T12:12:13;7.20;;;3.75;;
50205;SDS011;36098;48.390;10.856;2023-09-07T12:14:39;4.55;;;3.58;;
50205;SDS011;36098;48.390;10.856;2023-09-07T12:17:04;9.40;;;3.83;;
50205;SDS011;36098;48.390;10.856;2023-09-07T12:19:29;5.53;;;3.70;;
50205;SDS011;36098;48.390;10.856;2023-09-07T12:21:54;6.90;;;4.00;;
50205;SDS011;36098;48.390;10.856;2023-09-07T12:24:20;11.50;;;3.78;;
50205;SDS011;36098;48.390;10.856;2023-09-07T12:26:45;6.03;;;3.85;;
50205;SDS011;36098;48.390;10.856;2023-09-07T12:29:11;6.90;;;3.88;;
50205;SDS011;36098;48.390;10.856;2023-09-07T12:31:36;19.33;;;4.72;;
50205;SDS011;36098;48.390;10.856;2023-09-07T12:34:02;11.65;;;4.53;;
50205;SDS011;36098;48.390;10.856;2023-09-07T12:36:27;13.32;;;4.30;;
50205;SDS011;36098;48.390;10.856;2023-09-07T12:38:55;15.60;;;6.40;;
50205;SDS011;36098;48.390;10.856;2023-09-07T12:41:21;18.88;;;6.95;;
50205;SDS011;36098;48.390;10.856;2023-09-07T12:43:47;14.32;;;5.60;;
50205;SDS011;36098;48.390;10.856;2023-09-07T12:46:12;10.20;;;4.45;;
50205;SDS011;36098;48.390;10.856;2023-09-07T12:48:38;12.07;;;4.60;;
50205;SDS011;36098;48.390;10.856;2023-09-07T12:51:03;9.27;;;4.47;;
50205;SDS011;36098;48.390;10.856;2023-09-07T12:53:29;6.80;;;4.30;;
50205;SDS011;36098;48.390;10.856;2023-09-07T12:55:54;9.43;;;4.30;;
50205;SDS011;36098;48.390;10.856;2023-09-07T12:58:19;10.02;;;4.30;;
50205;SDS011;36098;48.390;10.856;2023-09-07T13:00:45;6.45;;;3.60;;
50205;SDS011;36098;48.390;10.856;2023-09-07T13:03:12;8.40;;;3.78;;
50205;SDS011;36098;48.390;10.856;2023-09-07T13:05:38;9.27;;;3.80;;
50205;SDS011;36098;48.390;10.856;2023-09-07T13:08:03;6.93;;;3.60;;
50205;SDS011;36098;48.390;10.856;2023-09-07T13:10:29;8.05;;;4.03;;
50205;SDS011;36098;48.390;10.856;2023-09-07T13:12:54;5.47;;;3.47;;
50205;SDS011;36098;48.390;10.856;2023-09-07T13:15:20;6.57;;;3.85;;
50205;SDS011;36098;48.390;10.856;2023-09-07T13:17:45;5.53;;;3.53;;
50205;SDS011;36098;48.390;10.856;2023-09-07T13:20:10;4.47;;;3.47;;
50205;SDS011;36098;48.390;10.856;2023-09-07T13:22:37;7.20;;;4.07;;
50205;SDS011;36098;48.390;10.856;2023-09-07T13:25:02;6.10;;;3.85;;
50205;SDS011;36098;48.390;10.856;2023-09-07T13:27:30;5.38;;;3.33;;
50205;SDS011;36098;48.390;10.856;2023-09-07T13:29:55;5.47;;;3.78;;
50205;SDS011;36098;48.390;10.856;2023-09-07T13:32:21;3.17;;;2.53;;
50205;SDS011;36098;48.390;10.856;2023-09-07T13:34:46;7.85;;;3.70;;
50205;SDS011;36098;48.390;10.856;2023-09-07T13:37:12;5.90;;;3.42;;
50205;SDS011;36098;48.390;10.856;2023-09-07T13:39:37;5.35;;;3.50;;
50205;SDS011;36098;48.390;10.856;2023-09-07T13:42:02;5.80;;;3.70;;
50205;SDS011;36098;48.390;10.856;2023-09-07T13:44:27;4.10;;;3.20;;
50205;SDS011;36098;48.390;10.856;2023-09-07T13:46:53;5.65;;;3.30;;
50205;SDS011;36098;48.390;10.856;2023-09-07T13:49:20;5.65;;;3.45;;
50205;SDS011;36098;48.390;10.856;2023-09-07T13:51:45;5.35;;;3.55;;
50205;SDS011;36098;48.390;10.856;2023-09-07T13:54:10;5.68;;;3.33;;
50205;SDS011;36098;48.390;10.856;2023-09-07T13:56:36;5.25;;;3.20;;
50205;SDS011;36098;48.390;10.856;2023-09-07T13:59:01;5.28;;;3.42;;
50205;SDS011;36098;48.390;10.856;2023-09-07T14:01:27;4.70;;;3.50;;
50205;SDS011;36098;48.390;10.856;2023-09-07T14:03:53;5.15;;;3.30;;
50205;SDS011;36098;48.390;10.856;2023-09-07T14:06:19;7.70;;;3.70;;
50205;SDS011;36098;48.390;10.856;2023-09-07T14:08:47;8.35;;;3.25;;
50205;SDS011;36098;48.390;10.856;2023-09-07T14:11:13;6.82;;;3.38;;
50205;SDS011;36098;48.390;10.856;2023-09-07T14:13:39;3.88;;;2.95;;
50205;SDS011;36098;48.390;10.856;2023-09-07T14:16:04;5.25;;;3.28;;
50205;SDS011;36098;48.390;10.856;2023-09-07T14:18:29;3.90;;;3.00;;
50205;SDS011;36098;48.390;10.856;2023-09-07T14:20:55;5.57;;;3.53;;
50205;SDS011;36098;48.390;10.856;2023-09-07T14:23:23;3.97;;;3.10;;
50205;SDS011;36098;48.390;10.856;2023-09-07T14:25:50;5.57;;;3.28;;
50205;SDS011;36098;48.390;10.856;2023-09-07T14:28:16;4.78;;;3.20;;
50205;SDS011;36098;48.390;10.856;2023-09-07T14:30:41;9.25;;;3.28;;